createdAt,value
2018-11-25T00:02:13.750Z,3.30
2018-11-25T00:04:44.317Z,3.30
2018-11-25T00:07:14.489Z,3.20
2018-11-25T00:09:44.885Z,3.30
2018-11-25T00:12:15.030Z,3.30
2018-11-25T00:14:47.747Z,3.30
2018-11-25T00:17:18.117Z,3.30
2018-11-25T00:19:48.262Z,3.20
2018-11-25T00:22:18.487Z,3.20
2018-11-25T00:24:48.819Z,3.30
2018-11-25T00:27:19.067Z,3.30
2018-11-25T00:29:49.407Z,3.30
2018-11-25T00:32:20.375Z,3.40
2018-11-25T00:37:26.620Z,3.20
2018-11-25T00:39:56.767Z,3.20
2018-11-25T00:42:27.006Z,3.20
2018-11-25T00:44:57.323Z,3.20
2018-11-25T00:47:27.711Z,3.20
2018-11-25T00:49:57.933Z,3.20
2018-11-25T00:52:28.252Z,3.20
2018-11-25T00:54:58.410Z,3.10
2018-11-25T00:57:28.690Z,3.10
2018-11-25T00:59:58.857Z,3.10
2018-11-25T01:02:29.183Z,3.20
2018-11-25T01:04:59.467Z,3.20
2018-11-25T01:07:29.980Z,3.10
2018-11-25T01:10:00.091Z,3.10
2018-11-25T01:12:30.228Z,3.20
2018-11-25T01:15:00.464Z,3.20
2018-11-25T01:17:30.780Z,3.30
2018-11-25T01:20:01.061Z,3.20
2018-11-25T01:22:31.189Z,3.10
2018-11-25T01:25:01.533Z,3.10
2018-11-25T01:27:31.734Z,3.20
2018-11-25T01:30:02.060Z,3.20
2018-11-25T01:32:32.397Z,3.20
2018-11-25T01:35:02.639Z,3.20
2018-11-25T01:37:32.890Z,3.20
2018-11-25T01:40:03.226Z,3.30
2018-11-25T01:42:33.410Z,3.30
2018-11-25T01:45:03.711Z,3.20
2018-11-25T01:47:33.885Z,3.30
2018-11-25T01:50:04.121Z,3.30
2018-11-25T01:52:34.298Z,3.20
2018-11-25T01:55:05.931Z,3.30
2018-11-25T01:57:36.025Z,3.20
2018-11-25T02:00:11.286Z,3.20
2018-11-25T02:02:41.622Z,3.20
2018-11-25T02:05:11.816Z,3.20
2018-11-25T02:07:41.977Z,3.30
2018-11-25T02:10:16.527Z,3.20
2018-11-25T02:12:46.732Z,3.20
2018-11-25T02:15:17.854Z,3.20
2018-11-25T02:17:48.042Z,3.20
2018-11-25T02:20:22.184Z,3.20
2018-11-25T02:22:54.592Z,3.10
2018-11-25T02:25:24.793Z,3.20
2018-11-25T02:27:55.029Z,3.20
2018-11-25T02:30:25.267Z,3.10
2018-11-25T02:32:55.575Z,3.10
2018-11-25T02:35:25.842Z,3.10
2018-11-25T02:37:56.021Z,3.20
2018-11-25T02:40:26.219Z,3.10
2018-11-25T02:42:56.355Z,3.20
2018-11-25T02:45:26.586Z,3.20
2018-11-25T02:47:56.822Z,3.20
2018-11-25T02:50:28.411Z,3.20
2018-11-25T02:53:01.258Z,3.20
2018-11-25T02:55:31.589Z,3.20
2018-11-25T02:58:01.830Z,3.20
2018-11-25T03:00:32.217Z,3.10
2018-11-25T03:03:02.409Z,3.10
2018-11-25T03:05:32.542Z,3.00
2018-11-25T03:08:02.672Z,3.00
2018-11-25T03:10:32.918Z,3.10
2018-11-25T03:13:03.156Z,3.00
2018-11-25T03:15:33.412Z,3.10
2018-11-25T03:18:03.757Z,3.00
2018-11-25T03:20:33.887Z,3.00
2018-11-25T03:23:04.064Z,3.00
2018-11-25T03:25:34.206Z,2.90
2018-11-25T03:28:04.668Z,2.90
2018-11-25T03:30:34.895Z,2.90
2018-11-25T03:33:05.185Z,2.90
2018-11-25T03:35:35.389Z,2.90
2018-11-25T03:38:05.600Z,3.00
2018-11-25T03:40:35.865Z,3.10
2018-11-25T03:43:06.064Z,3.10
2018-11-25T03:45:36.235Z,3.10
2018-11-25T03:48:06.430Z,3.10
2018-11-25T03:50:36.613Z,3.10
2018-11-25T03:53:07.034Z,3.20
2018-11-25T03:55:37.122Z,3.20
2018-11-25T03:58:07.558Z,3.20
2018-11-25T04:00:37.808Z,3.10
2018-11-25T04:03:08.003Z,3.10
2018-11-25T04:05:38.148Z,3.00
2018-11-25T04:08:08.518Z,3.10
2018-11-25T04:10:38.660Z,3.10
2018-11-25T04:13:08.798Z,3.10
2018-11-25T04:15:39.036Z,3.10
2018-11-25T04:18:09.210Z,3.10
2018-11-25T04:20:39.454Z,3.10
2018-11-25T04:23:09.705Z,3.10
2018-11-25T04:25:39.862Z,3.10
2018-11-25T04:28:10.025Z,3.10
2018-11-25T04:30:40.369Z,3.10
2018-11-25T04:33:10.691Z,3.00
2018-11-25T04:35:41.032Z,3.00
2018-11-25T04:38:11.316Z,3.00
2018-11-25T04:40:41.673Z,3.00
2018-11-25T04:43:12.107Z,3.10
2018-11-25T04:45:42.350Z,3.00
2018-11-25T04:48:12.661Z,3.10
2018-11-25T04:50:42.817Z,3.00
2018-11-25T04:53:13.085Z,3.10
2018-11-25T04:55:43.239Z,3.00
2018-11-25T04:58:13.334Z,3.00
2018-11-25T05:00:43.552Z,3.10
2018-11-25T05:03:13.790Z,3.10
2018-11-25T05:05:44.210Z,3.10
2018-11-25T05:08:14.402Z,3.10
2018-11-25T05:10:44.692Z,3.10
2018-11-25T05:13:15.037Z,3.00
2018-11-25T05:15:45.323Z,3.00
2018-11-25T05:18:15.565Z,3.10
2018-11-25T05:20:45.786Z,3.10
2018-11-25T05:23:15.888Z,3.00
2018-11-25T05:25:46.269Z,3.00
2018-11-25T05:28:16.370Z,3.10
2018-11-25T05:30:46.549Z,3.10
2018-11-25T05:33:16.723Z,3.20
2018-11-25T05:35:47.004Z,3.20
2018-11-25T05:38:17.240Z,3.30
2018-11-25T05:40:47.401Z,3.30
2018-11-25T05:43:17.841Z,3.20
2018-11-25T05:45:47.973Z,3.20
2018-11-25T05:48:18.210Z,3.30
2018-11-25T05:50:48.499Z,3.30
2018-11-25T05:53:18.657Z,3.20
2018-11-25T05:55:48.974Z,3.20
2018-11-25T05:58:19.145Z,3.20
2018-11-25T06:00:49.410Z,3.20
2018-11-25T06:03:19.615Z,3.20
2018-11-25T06:05:49.827Z,3.10
2018-11-25T06:08:20.109Z,3.20
2018-11-25T06:10:50.360Z,3.10
2018-11-25T06:13:20.581Z,3.20
2018-11-25T06:15:50.755Z,3.10
2018-11-25T06:18:21.114Z,3.20
2018-11-25T06:20:51.381Z,3.20
2018-11-25T06:23:21.675Z,3.20
2018-11-25T06:25:51.835Z,3.20
2018-11-25T06:28:22.017Z,3.20
2018-11-25T06:30:52.422Z,3.20
2018-11-25T06:33:22.672Z,3.20
2018-11-25T06:35:52.839Z,3.20
2018-11-25T06:38:24.378Z,3.20
2018-11-25T06:40:54.065Z,3.20
2018-11-25T06:43:24.301Z,3.30
2018-11-25T06:45:54.552Z,3.30
2018-11-25T06:48:25.002Z,3.20
2018-11-25T06:50:55.145Z,3.20
2018-11-25T06:53:25.401Z,3.20
2018-11-25T06:55:55.683Z,3.20
2018-11-25T06:58:25.858Z,3.20
2018-11-25T07:00:56.034Z,3.20
2018-11-25T07:03:26.085Z,3.20
2018-11-25T07:05:56.198Z,3.20
2018-11-25T07:08:26.243Z,3.30
2018-11-25T07:10:56.363Z,3.20
2018-11-25T07:13:26.513Z,3.30
2018-11-25T07:15:56.745Z,3.30
2018-11-25T07:18:26.889Z,3.40
2018-11-25T07:20:57.084Z,3.30
2018-11-25T07:23:27.416Z,3.20
2018-11-25T07:25:57.609Z,3.20
2018-11-25T07:28:28.472Z,3.20
2018-11-25T07:30:58.641Z,3.20
2018-11-25T07:33:28.848Z,3.10
2018-11-25T07:35:59.035Z,3.10
2018-11-25T07:38:29.232Z,3.20
2018-11-25T07:40:59.501Z,3.20
2018-11-25T07:43:29.715Z,3.30
2018-11-25T07:45:59.953Z,3.20
2018-11-25T07:48:30.096Z,3.20
2018-11-25T07:51:00.290Z,3.20
2018-11-25T07:53:30.391Z,3.30
2018-11-25T07:56:00.766Z,3.30
2018-11-25T07:58:30.946Z,3.20
2018-11-25T08:01:01.156Z,3.20
2018-11-25T08:03:31.310Z,3.20
2018-11-25T08:06:01.546Z,3.30
2018-11-25T08:08:31.890Z,3.40
2018-11-25T08:11:02.039Z,3.40
2018-11-25T08:13:32.198Z,3.40
2018-11-25T08:16:02.648Z,3.50
2018-11-25T08:18:32.750Z,3.50
2018-11-25T08:21:03.019Z,3.50
2018-11-25T08:23:33.238Z,3.50
2018-11-25T08:26:03.482Z,3.50
2018-11-25T08:28:33.690Z,3.50
2018-11-25T08:31:03.995Z,3.60
2018-11-25T08:33:34.106Z,3.60
2018-11-25T08:36:04.280Z,3.60
2018-11-25T08:38:34.435Z,3.70
2018-11-25T08:41:04.769Z,3.60
2018-11-25T08:43:35.028Z,3.60
2018-11-25T08:46:05.329Z,3.60
2018-11-25T08:48:35.575Z,3.60
2018-11-25T08:51:06.049Z,3.60
2018-11-25T08:53:36.541Z,3.50
2018-11-25T08:56:07.352Z,3.50
2018-11-25T08:58:37.486Z,3.50
2018-11-25T09:01:08.412Z,3.50
2018-11-25T09:03:38.636Z,3.50
2018-11-25T09:06:09.208Z,3.50
2018-11-25T09:08:39.471Z,3.50
2018-11-25T09:11:09.794Z,3.50
2018-11-25T09:13:40.472Z,3.50
2018-11-25T09:16:10.642Z,3.60
2018-11-25T09:18:40.947Z,3.60
2018-11-25T09:21:11.599Z,3.70
2018-11-25T09:23:41.872Z,3.70
2018-11-25T09:26:12.214Z,3.80
2018-11-25T09:28:42.404Z,3.80
2018-11-25T09:31:12.549Z,3.90
2018-11-25T09:33:42.750Z,3.90
2018-11-25T09:36:12.978Z,3.90
2018-11-25T09:38:43.164Z,3.80
2018-11-25T09:41:13.415Z,3.90
2018-11-25T09:43:43.530Z,3.90
2018-11-25T09:46:13.711Z,3.90
2018-11-25T09:48:43.890Z,3.80
2018-11-25T09:51:14.072Z,3.90
2018-11-25T09:53:44.327Z,3.90
2018-11-25T09:56:14.584Z,3.90
2018-11-25T09:58:44.661Z,3.90
2018-11-25T10:01:14.785Z,3.90
2018-11-25T10:03:45.020Z,3.90
2018-11-25T10:06:15.193Z,3.90
2018-11-25T10:08:45.308Z,3.90
2018-11-25T10:11:15.475Z,3.90
2018-11-25T10:13:45.582Z,3.90
2018-11-25T10:16:15.745Z,3.80
2018-11-25T10:18:45.834Z,3.90
2018-11-25T10:21:15.961Z,4.00
2018-11-25T10:23:46.084Z,4.00
2018-11-25T10:26:16.292Z,4.00
2018-11-25T10:28:46.662Z,4.00
2018-11-25T10:31:16.742Z,4.00
2018-11-25T10:33:47.125Z,4.10
2018-11-25T10:36:17.336Z,4.00
2018-11-25T10:38:47.808Z,4.10
2018-11-25T10:41:17.941Z,4.10
2018-11-25T10:43:48.314Z,4.10
2018-11-25T10:46:18.466Z,4.10
2018-11-25T10:48:48.677Z,4.00
2018-11-25T10:51:18.823Z,4.10
2018-11-25T10:53:48.999Z,4.10
2018-11-25T10:56:19.168Z,4.20
2018-11-25T10:58:49.245Z,4.30
2018-11-25T11:01:24.460Z,4.30
2018-11-25T11:03:55.965Z,4.30
2018-11-25T11:06:32.024Z,4.30
2018-11-25T11:09:02.265Z,4.20
2018-11-25T11:11:32.856Z,4.20
2018-11-25T11:14:03.070Z,4.20
2018-11-25T11:16:33.099Z,4.20
2018-11-25T11:19:03.255Z,4.20
2018-11-25T11:21:33.454Z,4.20
2018-11-25T11:24:03.554Z,4.20
2018-11-25T11:26:33.621Z,4.10
2018-11-25T11:29:03.791Z,4.00
2018-11-25T11:31:34.529Z,4.10
2018-11-25T11:34:04.729Z,4.00
2018-11-25T11:36:34.981Z,4.20
2018-11-25T11:39:07.351Z,4.20
2018-11-25T11:41:37.596Z,4.20
2018-11-25T11:44:07.710Z,4.20
2018-11-25T11:46:37.911Z,4.30
2018-11-25T11:49:08.431Z,4.40
2018-11-25T11:51:38.661Z,4.30
2018-11-25T11:54:08.717Z,4.20
2018-11-25T11:56:40.348Z,4.20
2018-11-25T11:59:09.210Z,4.20
2018-11-25T12:01:39.482Z,4.10
2018-11-25T12:04:09.666Z,4.20
2018-11-25T12:06:39.805Z,4.20
2018-11-25T12:09:11.514Z,4.10
2018-11-25T12:11:41.677Z,4.10
2018-11-25T12:14:11.816Z,4.00
2018-11-25T12:16:41.978Z,4.00
2018-11-25T12:19:12.083Z,4.00
2018-11-25T12:21:42.348Z,3.90
2018-11-25T12:24:12.434Z,4.00
2018-11-25T12:26:42.648Z,3.90
2018-11-25T12:29:12.711Z,3.90
2018-11-25T12:31:42.864Z,3.90
2018-11-25T12:34:13.081Z,3.90
2018-11-25T12:36:43.161Z,3.90
2018-11-25T12:39:13.895Z,3.90
2018-11-25T12:41:44.074Z,4.00
2018-11-25T12:44:14.154Z,4.00
2018-11-25T12:46:44.380Z,4.00
2018-11-25T12:49:14.485Z,4.00
2018-11-25T12:51:45.092Z,4.00
2018-11-25T12:54:15.234Z,3.90
2018-11-25T12:56:51.664Z,3.90
2018-11-25T12:59:15.534Z,3.90
2018-11-25T13:01:45.659Z,4.00
2018-11-25T13:04:15.787Z,4.00
2018-11-25T13:06:45.934Z,4.00
2018-11-25T13:09:16.090Z,4.00
2018-11-25T13:11:52.328Z,4.00
2018-11-25T13:14:16.386Z,4.00
2018-11-25T13:16:46.596Z,4.00
2018-11-25T13:19:16.651Z,4.10
2018-11-25T13:21:46.847Z,4.00
2018-11-25T13:24:17.008Z,4.10
2018-11-25T13:26:47.093Z,4.00
2018-11-25T13:29:17.210Z,3.90
2018-11-25T13:31:47.340Z,3.90
2018-11-25T13:34:17.440Z,4.00
2018-11-25T13:36:47.638Z,3.90
2018-11-25T13:39:17.978Z,3.90
2018-11-25T13:41:48.739Z,3.90
2018-11-25T13:44:18.819Z,4.00
2018-11-25T13:46:49.076Z,3.80
2018-11-25T13:49:19.215Z,3.80
2018-11-25T13:51:49.289Z,3.70
2018-11-25T13:54:19.364Z,3.80
2018-11-25T13:56:49.480Z,3.80
2018-11-25T13:59:19.531Z,3.80
2018-11-25T14:01:49.720Z,3.80
2018-11-25T14:04:19.812Z,3.70
2018-11-25T14:06:49.970Z,3.70
2018-11-25T14:09:20.193Z,3.70
2018-11-25T14:11:50.484Z,3.80
2018-11-25T14:14:20.569Z,3.70
2018-11-25T14:16:50.817Z,3.70
2018-11-25T14:19:20.860Z,3.70
2018-11-25T14:21:51.009Z,3.80
2018-11-25T14:24:21.218Z,3.80
2018-11-25T14:26:57.566Z,3.70
2018-11-25T14:29:28.214Z,3.70
2018-11-25T14:31:59.197Z,3.60
2018-11-25T14:34:29.420Z,3.60
2018-11-25T14:36:59.603Z,3.70
2018-11-25T14:39:30.044Z,3.60
2018-11-25T14:42:00.184Z,3.60
2018-11-25T14:44:30.280Z,3.60
2018-11-25T14:47:00.467Z,3.70
2018-11-25T14:49:30.574Z,3.60
2018-11-25T14:52:00.693Z,3.60
2018-11-25T14:54:30.857Z,3.60
2018-11-25T14:57:00.953Z,3.60
2018-11-25T14:59:31.063Z,3.70
2018-11-25T15:02:01.227Z,3.60
2018-11-25T15:04:36.049Z,3.60
2018-11-25T15:07:01.533Z,3.60
2018-11-25T15:09:31.641Z,3.60
2018-11-25T15:12:01.812Z,3.60
2018-11-25T15:14:31.943Z,3.50
2018-11-25T15:17:02.159Z,3.60
2018-11-25T15:19:32.276Z,3.50
2018-11-25T15:22:02.942Z,3.60
2018-11-25T15:24:33.054Z,3.60
2018-11-25T15:27:03.308Z,3.60
2018-11-25T15:29:33.666Z,3.60
2018-11-25T15:32:04.061Z,3.60
2018-11-25T15:34:34.138Z,3.60
2018-11-25T15:37:04.435Z,3.70
2018-11-25T15:39:34.578Z,3.60
2018-11-25T15:42:04.749Z,3.60
2018-11-25T15:44:34.831Z,3.60
2018-11-25T15:47:08.249Z,3.60
2018-11-25T15:49:35.172Z,3.60
2018-11-25T15:52:06.875Z,3.70
2018-11-25T15:54:36.959Z,3.70
2018-11-25T15:57:07.591Z,3.60
2018-11-25T15:59:37.670Z,3.70
2018-11-25T16:02:07.853Z,3.70
2018-11-25T16:04:38.039Z,3.80
2018-11-25T16:07:08.204Z,3.70
2018-11-25T16:09:38.249Z,3.70
2018-11-25T16:12:08.361Z,3.80
2018-11-25T16:14:38.436Z,3.80
2018-11-25T16:17:08.673Z,3.70
2018-11-25T16:19:38.740Z,3.70
2018-11-25T16:22:08.853Z,3.70
2018-11-25T16:24:38.908Z,3.60
2018-11-25T16:27:09.357Z,3.70
2018-11-25T16:29:39.427Z,3.70
2018-11-25T16:32:09.549Z,3.70
2018-11-25T16:34:39.627Z,3.70
2018-11-25T16:37:09.825Z,3.70
2018-11-25T16:39:39.877Z,3.60
2018-11-25T16:42:09.972Z,3.60
2018-11-25T16:44:40.054Z,3.70
2018-11-25T16:47:10.182Z,3.70
2018-11-25T16:49:40.316Z,3.60
2018-11-25T16:52:10.416Z,3.60
2018-11-25T16:54:40.499Z,3.70
2018-11-25T16:57:10.670Z,3.60
2018-11-25T16:59:40.733Z,3.60
2018-11-25T17:02:10.850Z,3.60
2018-11-25T17:04:40.915Z,3.60
2018-11-25T17:07:11.101Z,3.60
2018-11-25T17:09:41.217Z,3.60
2018-11-25T17:12:11.291Z,3.60
2018-11-25T17:14:41.378Z,3.60
2018-11-25T17:17:11.521Z,3.60
2018-11-25T17:19:41.598Z,3.60
2018-11-25T17:22:16.392Z,3.60
2018-11-25T17:24:41.965Z,3.60
2018-11-25T17:27:12.087Z,3.60
2018-11-25T17:29:42.241Z,3.60
2018-11-25T17:32:12.300Z,3.60
2018-11-25T17:34:42.416Z,3.60
2018-11-25T17:37:12.531Z,3.60
2018-11-25T17:39:42.674Z,3.60
2018-11-25T17:42:12.763Z,3.70
2018-11-25T17:44:42.869Z,3.70
2018-11-25T17:47:12.960Z,3.70
2018-11-25T17:49:43.026Z,3.70
2018-11-25T17:52:13.164Z,3.80
2018-11-25T17:54:43.258Z,3.70
2018-11-25T17:57:13.431Z,3.70
2018-11-25T17:59:43.536Z,3.70
2018-11-25T18:02:13.659Z,3.70
2018-11-25T18:04:43.761Z,3.80
2018-11-25T18:07:13.850Z,3.80
2018-11-25T18:09:44.132Z,3.80
2018-11-25T18:12:14.312Z,3.70
2018-11-25T18:14:44.409Z,3.70
2018-11-25T18:17:14.586Z,3.70
2018-11-25T18:19:44.743Z,3.80
2018-11-25T18:22:20.925Z,3.80
2018-11-25T18:24:50.988Z,3.80
2018-11-25T18:27:21.148Z,3.80
2018-11-25T18:29:51.258Z,3.90
2018-11-25T18:32:21.424Z,3.90
2018-11-25T18:34:51.559Z,3.90
2018-11-25T18:37:21.679Z,3.90
2018-11-25T18:39:51.971Z,3.90
2018-11-25T18:42:22.125Z,3.90
2018-11-25T18:44:52.319Z,3.90
2018-11-25T18:47:22.568Z,3.90
2018-11-25T18:49:52.621Z,3.90
2018-11-25T18:52:22.725Z,3.90
2018-11-25T18:54:50.799Z,3.90
2018-11-25T18:57:21.049Z,3.90
2018-11-25T18:59:51.316Z,3.90
2018-11-25T19:02:27.747Z,3.90
2018-11-25T19:04:57.880Z,4.00
2018-11-25T19:10:11.395Z,3.90
2018-11-25T19:12:44.341Z,3.90
2018-11-25T19:15:15.138Z,3.90
2018-11-25T19:17:45.332Z,3.90
2018-11-25T19:20:25.834Z,3.90
2018-11-25T19:22:56.671Z,3.90
2018-11-25T19:25:27.083Z,3.90
2018-11-25T19:27:58.301Z,3.90
2018-11-25T19:30:28.444Z,3.90
2018-11-25T19:32:58.612Z,3.90
2018-11-25T19:35:28.987Z,3.90
2018-11-25T19:37:59.224Z,3.90
2018-11-25T19:40:30.046Z,3.90
2018-11-25T19:43:00.194Z,3.90
2018-11-25T19:45:30.491Z,4.00
2018-11-25T19:48:00.936Z,3.90
2018-11-25T19:50:33.201Z,4.00
2018-11-25T19:53:03.526Z,4.00
2018-11-25T19:55:34.380Z,4.00
2018-11-25T19:58:04.962Z,4.00
2018-11-25T20:00:35.106Z,4.10
2018-11-25T20:03:05.657Z,4.00
2018-11-25T20:05:36.531Z,4.10
2018-11-25T20:08:07.297Z,4.10
2018-11-25T20:10:37.638Z,4.10
2018-11-25T20:13:10.232Z,4.10
2018-11-25T20:15:40.931Z,4.10
2018-11-25T20:18:11.799Z,4.10
2018-11-25T20:20:42.189Z,4.20
2018-11-25T20:23:12.768Z,4.20
2018-11-25T20:25:43.024Z,4.20
2018-11-25T20:28:13.427Z,4.30
2018-11-25T20:30:43.609Z,4.30
2018-11-25T20:33:18.864Z,4.20
2018-11-25T20:35:49.154Z,4.20
2018-11-25T20:38:24.388Z,4.30
2018-11-25T20:40:54.645Z,4.30
2018-11-25T20:43:25.541Z,4.30
2018-11-25T20:46:01.119Z,4.30
2018-11-25T20:48:31.785Z,4.30
2018-11-25T20:51:02.352Z,4.40
2018-11-25T20:53:37.627Z,4.40
2018-11-25T20:56:07.972Z,4.40
2018-11-25T20:58:38.101Z,4.50
2018-11-25T21:01:10.883Z,4.40
2018-11-25T21:03:41.537Z,4.40
2018-11-25T21:06:12.408Z,4.40
2018-11-25T21:08:45.049Z,4.50
2018-11-25T21:11:15.758Z,4.50
2018-11-25T21:13:46.254Z,4.50
2018-11-25T21:16:16.479Z,4.40
2018-11-25T21:18:46.964Z,4.40
2018-11-25T21:21:18.061Z,4.40
2018-11-25T21:23:48.301Z,4.40
2018-11-25T21:26:18.504Z,4.40
2018-11-25T21:28:48.726Z,4.50
2018-11-25T21:31:19.652Z,4.50
2018-11-25T21:33:49.849Z,4.50
2018-11-25T21:36:20.061Z,4.50
2018-11-25T21:38:50.309Z,4.50
2018-11-25T21:41:20.383Z,4.50
2018-11-25T21:43:50.826Z,4.50
2018-11-25T21:46:21.015Z,4.50
2018-11-25T21:48:51.326Z,4.50
2018-11-25T21:51:21.629Z,4.50
2018-11-25T21:53:52.326Z,4.40
2018-11-25T21:56:22.685Z,4.50
2018-11-25T21:58:52.922Z,4.50
2018-11-25T22:01:23.308Z,4.50
2018-11-25T22:04:00.592Z,4.50
2018-11-25T22:06:31.234Z,4.50
2018-11-25T22:09:10.575Z,4.50
2018-11-25T22:11:41.200Z,4.50
2018-11-25T22:14:11.690Z,4.50
2018-11-25T22:16:42.078Z,4.50
2018-11-25T22:19:13.319Z,4.50
2018-11-25T22:21:43.655Z,4.60
2018-11-25T22:24:13.764Z,4.50
2018-11-25T22:26:43.913Z,4.60
2018-11-25T22:29:14.605Z,4.60
2018-11-25T22:31:44.835Z,4.60
2018-11-25T22:34:15.012Z,4.60
2018-11-25T22:36:45.319Z,4.60
2018-11-25T22:39:16.540Z,4.60
2018-11-25T22:41:46.807Z,4.50
2018-11-25T22:44:17.046Z,4.60
2018-11-25T22:46:47.208Z,4.60
2018-11-25T22:49:17.543Z,4.60
2018-11-25T22:51:47.785Z,4.60
2018-11-25T22:54:18.006Z,4.70
2018-11-25T22:56:48.322Z,4.70
2018-11-25T22:59:18.838Z,4.70
2018-11-25T23:01:49.462Z,4.70
2018-11-25T23:04:37.006Z,4.70
2018-11-25T23:07:07.241Z,4.70
2018-11-25T23:09:37.311Z,4.70
2018-11-25T23:12:07.652Z,4.70
2018-11-25T23:14:37.797Z,4.80
2018-11-25T23:17:08.013Z,4.80
2018-11-25T23:19:38.071Z,4.80
2018-11-25T23:22:08.248Z,4.80
2018-11-25T23:24:38.355Z,4.70
2018-11-25T23:27:08.494Z,4.70
2018-11-25T23:29:38.638Z,4.70
2018-11-25T23:32:08.812Z,4.70
2018-11-25T23:34:38.899Z,4.70
2018-11-25T23:37:09.604Z,4.70
2018-11-25T23:39:39.722Z,4.80
2018-11-25T23:42:09.944Z,4.80
2018-11-25T23:44:40.058Z,4.80
2018-11-25T23:47:10.247Z,4.80
2018-11-25T23:49:40.401Z,4.80
2018-11-25T23:52:10.522Z,4.80
2018-11-25T23:54:40.665Z,4.80
2018-11-25T23:57:10.852Z,4.80
2018-11-25T23:59:41.031Z,4.80
